Time;durP1;ratioP1;P1;durP2;ratioP2;P2;SDS_P1;SDS_P2;PMS_P1;PMS_P2;Temp;Humidity;BMP_temperature;BMP_pressure;BME280_temperature;BME280_humidity;BME280_pressure;Samples;Min_cycle;Max_cycle;Signal;HPM_P1;HPM_P2
2022/04/21 00:01:04;;;;;;;20.70;3.92;;;;;;;;;;5021478;28;20042;-80
2022/04/21 00:03:37;;;;;;;15.30;3.33;;;;;;;;;;5022359;28;20496;-80
2022/04/21 00:06:08;;;;;;;24.02;3.95;;;;;;;;;;5041495;28;20041;-80
2022/04/21 00:08:56;;;;;;;24.73;4.32;;;;;;;;;;5045383;28;20085;-80
2022/04/21 00:11:44;;;;;;;13.68;3.58;;;;;;;;;;5044594;28;20108;-80
2022/04/21 00:14:54;;;;;;;20.52;3.47;;;;;;;;;;5035182;28;20041;-80
2022/04/21 00:17:55;;;;;;;13.45;3.38;;;;;;;;;;5033538;28;20418;-80
2022/04/21 00:20:34;;;;;;;14.40;3.53;;;;;;;;;;5021174;28;20022;-80
2022/04/21 00:31:34;;;;;;;15.30;3.30;;;;;;;;;;5022165;28;20596;-80
2022/04/21 00:34:09;;;;;;;15.23;3.55;;;;;;;;;;5042836;28;20029;-80
2022/04/21 02:09:20;;;;;;;18.13;3.05;;;;;;;;;;5006394;28;20033;-80
2022/04/21 02:26:43;;;;;;;12.10;2.55;;;;;;;;;;5038266;23;20065;-80
2022/04/21 02:29:52;;;;;;;14.38;3.05;;;;;;;;;;5006243;28;20034;-80
2022/04/21 02:32:21;;;;;;;9.55;3.08;;;;;;;;;;4975496;28;20042;-80
2022/04/21 02:35:33;;;;;;;12.73;2.83;;;;;;;;;;5020213;28;20049;-80
2022/04/21 02:38:38;;;;;;;6.85;2.10;;;;;;;;;;4912659;29;20066;-80
2022/04/21 02:41:51;;;;;;;9.60;2.42;;;;;;;;;;4861415;29;20025;-80
2022/04/21 02:44:44;;;;;;;12.25;3.33;;;;;;;;;;4875098;29;20097;-78
2022/04/21 02:50:49;;;;;;;17.05;3.22;;;;;;;;;;4869437;29;20128;-78
2022/04/21 02:57:27;;;;;;;10.93;2.55;;;;;;;;;;4852647;29;20166;-78
2022/04/21 03:12:48;;;;;;;8.35;1.90;;;;;;;;;;4873020;29;19924;-78
2022/04/21 03:15:40;;;;;;;8.88;2.80;;;;;;;;;;4974855;28;20033;-77
2022/04/21 03:24:29;;;;;;;11.20;3.17;;;;;;;;;;5023173;28;20057;-78
2022/04/21 03:30:01;;;;;;;14.10;2.60;;;;;;;;;;5016811;28;20045;-78
2022/04/21 03:32:27;;;;;;;7.05;2.60;;;;;;;;;;4977866;28;20026;-78
2022/04/21 03:34:54;;;;;;;10.98;2.85;;;;;;;;;;4989023;28;20030;-79
2022/04/21 03:37:21;;;;;;;9.52;2.60;;;;;;;;;;4988074;28;20056;-78
2022/04/21 03:39:47;;;;;;;15.40;3.13;;;;;;;;;;4987127;28;20034;-78
2022/04/21 03:42:23;;;;;;;9.65;2.78;;;;;;;;;;4986481;28;20022;-72
2022/04/21 03:44:49;;;;;;;12.77;2.90;;;;;;;;;;4986906;28;20124;-78
2022/04/21 03:47:15;;;;;;;14.95;3.63;;;;;;;;;;4988689;28;20494;-79
2022/04/21 03:49:41;;;;;;;13.48;3.30;;;;;;;;;;4988020;28;20068;-79
2022/04/21 03:52:10;;;;;;;14.35;4.60;;;;;;;;;;4987178;28;20443;-78
2022/04/21 03:54:38;;;;;;;9.35;2.50;;;;;;;;;;4987283;28;20078;-79
2022/04/21 03:57:04;;;;;;;8.77;2.88;;;;;;;;;;4987406;28;20050;-78
2022/04/21 03:59:30;;;;;;;14.02;3.65;;;;;;;;;;4987575;28;20026;-78
2022/04/21 04:02:03;;;;;;;6.85;2.10;;;;;;;;;;4968910;28;19999;-78
2022/04/21 04:04:30;;;;;;;10.07;2.67;;;;;;;;;;4951039;28;20043;-79
2022/04/21 19:17:40;;;;;;;20.08;4.85;;;;;;;;;;4977899;28;20151;-91
2022/04/21 19:20:09;;;;;;;26.83;6.40;;;;;;;;;;4960458;28;20109;-91
2022/04/21 19:22:35;;;;;;;25.33;5.63;;;;;;;;;;4960262;28;20022;-91
2022/04/21 19:25:05;;;;;;;28.50;6.13;;;;;;;;;;4960482;28;20364;-91
2022/04/21 19:27:37;;;;;;;25.13;6.30;;;;;;;;;;4960451;28;20077;-91
2022/04/21 19:30:04;;;;;;;34.83;6.78;;;;;;;;;;4960205;28;20105;-90
2022/04/21 19:32:48;;;;;;;48.65;7.05;;;;;;;;;;4960033;28;20019;-91
2022/04/21 19:38:32;;;;;;;50.65;9.00;;;;;;;;;;4977418;28;20050;-91
2022/04/21 19:40:59;;;;;;;50.10;10.35;;;;;;;;;;4914344;28;20041;-88
2022/04/21 19:43:25;;;;;;;38.33;8.25;;;;;;;;;;4959737;28;20015;-90
2022/04/21 19:45:56;;;;;;;31.88;6.90;;;;;;;;;;4959888;28;20037;-90
2022/04/21 19:48:22;;;;;;;29.80;5.97;;;;;;;;;;4960063;28;20023;-91
2022/04/21 19:50:54;;;;;;;21.80;5.10;;;;;;;;;;4959995;28;20113;-91
2022/04/21 19:53:20;;;;;;;9.90;3.45;;;;;;;;;;4960259;28;20035;-91
2022/04/21 19:56:01;;;;;;;10.68;2.92;;;;;;;;;;4959966;28;20479;-91
2022/04/21 19:58:31;;;;;;;8.80;2.20;;;;;;;;;;4960650;28;20455;-91
2022/04/21 20:04:02;;;;;;;6.88;1.30;;;;;;;;;;4976656;28;20069;-91
2022/04/21 20:09:14;;;;;;;10.57;2.38;;;;;;;;;;4977008;28;20046;-91
2022/04/21 20:11:43;;;;;;;10.80;2.47;;;;;;;;;;4959311;28;20170;-91
2022/04/21 20:14:09;;;;;;;12.88;3.13;;;;;;;;;;4959250;28;20027;-91
2022/04/21 20:16:36;;;;;;;8.43;2.15;;;;;;;;;;4959090;28;20517;-92
2022/04/21 20:27:17;;;;;;;11.32;2.90;;;;;;;;;;4976787;28;20050;-91
2022/04/21 20:29:43;;;;;;;10.52;2.55;;;;;;;;;;4958965;28;20529;-91
2022/04/21 20:32:10;;;;;;;12.00;2.55;;;;;;;;;;4959284;28;20031;-90
2022/04/21 20:34:40;;;;;;;13.23;2.60;;;;;;;;;;4959025;28;20023;-92
2022/04/21 20:37:10;;;;;;;8.88;2.03;;;;;;;;;;4959006;28;20031;-92
2022/04/21 20:39:37;;;;;;;10.10;2.60;;;;;;;;;;4959092;28;20118;-92
2022/04/21 20:42:03;;;;;;;15.07;2.53;;;;;;;;;;4958974;28;20023;-92
2022/04/21 20:44:30;;;;;;;12.07;2.85;;;;;;;;;;4958930;28;20050;-92
2022/04/21 20:46:56;;;;;;;10.50;2.28;;;;;;;;;;4959030;28;20023;-90
2022/04/21 20:49:26;;;;;;;9.27;2.42;;;;;;;;;;4959060;28;20450;-92
2022/04/21 20:51:55;;;;;;;11.43;2.55;;;;;;;;;;4958749;28;20030;-91
2022/04/21 20:54:23;;;;;;;11.20;2.10;;;;;;;;;;4958897;28;20030;-92
2022/04/21 20:56:50;;;;;;;14.65;2.85;;;;;;;;;;4958667;28;20454;-92
2022/04/21 20:59:16;;;;;;;9.68;2.63;;;;;;;;;;4958611;28;20471;-92
2022/04/21 21:01:42;;;;;;;10.98;3.63;;;;;;;;;;4959023;28;20403;-92
2022/04/21 21:04:08;;;;;;;11.88;2.53;;;;;;;;;;4958720;28;20046;-93
2022/04/21 21:09:19;;;;;;;15.25;3.08;;;;;;;;;;4976144;28;20505;-92
2022/04/21 21:11:47;;;;;;;18.33;3.90;;;;;;;;;;4958125;28;20031;-93
2022/04/21 21:14:14;;;;;;;17.40;3.22;;;;;;;;;;4958729;28;20030;-92
2022/04/21 21:16:42;;;;;;;7.40;2.33;;;;;;;;;;4958326;28;20054;-92
2022/04/21 21:19:09;;;;;;;16.42;4.20;;;;;;;;;;4958448;28;20023;-92
2022/04/21 21:21:35;;;;;;;16.45;4.03;;;;;;;;;;4958591;28;20037;-92
2022/04/21 21:24:01;;;;;;;15.55;3.30;;;;;;;;;;4958369;28;20030;-93
2022/04/21 21:26:27;;;;;;;13.45;2.90;;;;;;;;;;4958310;28;20459;-93
2022/04/21 21:28:53;;;;;;;11.55;2.85;;;;;;;;;;4958493;28;20544;-92
2022/04/21 21:31:20;;;;;;;12.15;3.35;;;;;;;;;;4958590;28;20049;-92
2022/04/21 21:33:46;;;;;;;15.52;3.08;;;;;;;;;;4958328;28;20031;-91
2022/04/21 21:36:12;;;;;;;11.63;2.78;;;;;;;;;;4958294;28;20026;-92
2022/04/21 21:38:42;;;;;;;13.13;2.63;;;;;;;;;;4958473;28;20527;-92
2022/04/21 21:41:09;;;;;;;11.68;2.20;;;;;;;;;;4958415;28;20019;-92
2022/04/21 21:43:35;;;;;;;21.45;2.72;;;;;;;;;;4958334;28;20023;-92
2022/04/21 21:46:02;;;;;;;11.43;2.65;;;;;;;;;;4959004;28;20062;-91
2022/04/21 21:53:58;;;;;;;12.23;2.20;;;;;;;;;;4975575;28;20533;-93
2022/04/21 21:56:24;;;;;;;11.93;2.20;;;;;;;;;;4958191;28;20113;-91
2022/04/21 21:58:51;;;;;;;9.15;2.38;;;;;;;;;;4958184;28;20058;-92
2022/04/21 22:01:18;;;;;;;12.77;1.80;;;;;;;;;;4958310;28;20077;-92
2022/04/21 22:03:44;;;;;;;7.55;2.05;;;;;;;;;;4958205;28;20051;-92
2022/04/21 22:06:10;;;;;;;9.63;2.13;;;;;;;;;;4958074;28;20088;-92
2022/04/21 22:08:36;;;;;;;6.22;1.95;;;;;;;;;;4958049;28;20031;-92
2022/04/21 22:11:03;;;;;;;8.48;1.90;;;;;;;;;;4958056;28;20122;-91
2022/04/21 22:13:30;;;;;;;9.18;2.05;;;;;;;;;;4958060;28;20042;-93
2022/04/21 22:15:56;;;;;;;15.15;2.60;;;;;;;;;;4957875;28;20037;-92
2022/04/21 22:18:22;;;;;;;14.82;2.63;;;;;;;;;;4958000;28;20078;-92
2022/04/21 22:20:49;;;;;;;10.60;2.60;;;;;;;;;;4957793;28;20118;-92
2022/04/21 22:23:15;;;;;;;10.32;2.42;;;;;;;;;;4957979;28;20074;-93
2022/04/21 22:25:41;;;;;;;9.57;2.92;;;;;;;;;;4961454;28;20050;-92
2022/04/21 22:28:07;;;;;;;13.00;2.67;;;;;;;;;;4961216;28;20034;-92
2022/04/21 22:30:34;;;;;;;13.07;2.97;;;;;;;;;;4961395;28;20549;-92
2022/04/21 22:33:00;;;;;;;11.05;1.90;;;;;;;;;;4961374;28;20027;-93
2022/04/21 22:35:28;;;;;;;10.05;2.30;;;;;;;;;;4961268;28;20475;-91
2022/04/21 22:37:54;;;;;;;9.40;2.55;;;;;;;;;;4961264;28;20029;-94
2022/04/21 22:40:21;;;;;;;8.73;1.70;;;;;;;;;;4961015;28;20029;-93
2022/04/21 22:42:47;;;;;;;6.28;1.55;;;;;;;;;;4961179;28;20026;-93
2022/04/21 22:45:13;;;;;;;12.43;2.00;;;;;;;;;;4961003;28;20027;-93
2022/04/21 22:47:40;;;;;;;8.65;2.15;;;;;;;;;;4961003;28;20058;-94
2022/04/21 22:50:08;;;;;;;9.32;1.92;;;;;;;;;;4961040;28;20471;-94
2022/04/21 22:52:36;;;;;;;9.88;2.65;;;;;;;;;;4960931;28;20034;-94
2022/04/21 22:55:02;;;;;;;9.02;2.30;;;;;;;;;;4960876;28;20054;-93
2022/04/21 22:57:28;;;;;;;10.35;1.85;;;;;;;;;;4960681;28;20031;-96
2022/04/21 22:59:55;;;;;;;10.50;2.65;;;;;;;;;;4960784;28;20546;-96
2022/04/21 23:02:21;;;;;;;5.57;1.40;;;;;;;;;;4960947;28;20034;-96
2022/04/21 23:04:47;;;;;;;5.60;1.52;;;;;;;;;;4960774;28;20066;-96
2022/04/21 23:07:13;;;;;;;5.50;1.30;;;;;;;;;;4960653;28;20026;-96
2022/04/21 23:15:09;;;;;;;6.80;1.30;;;;;;;;;;4978213;28;20062;-92
2022/04/21 23:17:35;;;;;;;8.95;1.65;;;;;;;;;;4960289;28;20146;-91
2022/04/21 23:20:01;;;;;;;6.40;1.30;;;;;;;;;;4960591;28;20022;-92
2022/04/21 23:22:27;;;;;;;9.50;1.70;;;;;;;;;;4960602;28;20022;-92
2022/04/21 23:24:53;;;;;;;6.78;1.65;;;;;;;;;;4960458;28;20460;-92
2022/04/21 23:27:20;;;;;;;5.65;1.23;;;;;;;;;;4960408;28;20027;-92
2022/04/21 23:29:47;;;;;;;4.70;0.98;;;;;;;;;;4960167;28;20093;-91
2022/04/21 23:32:13;;;;;;;5.63;1.00;;;;;;;;;;4960191;28;20031;-92
2022/04/21 23:34:39;;;;;;;6.75;1.33;;;;;;;;;;4959945;28;20439;-92
2022/04/21 23:37:05;;;;;;;2.95;0.70;;;;;;;;;;4960053;28;20022;-92
2022/04/21 23:39:32;;;;;;;4.22;0.73;;;;;;;;;;4960180;28;20027;-91
2022/04/21 23:41:58;;;;;;;5.40;0.93;;;;;;;;;;4960130;28;20027;-91
2022/04/21 23:44:24;;;;;;;4.28;0.90;;;;;;;;;;4959933;28;20118;-92
2022/04/21 23:46:51;;;;;;;5.43;0.82;;;;;;;;;;4959857;28;20117;-95
2022/04/21 23:49:17;;;;;;;2.03;0.77;;;;;;;;;;4959743;28;20023;-95
2022/04/21 23:51:44;;;;;;;6.47;0.93;;;;;;;;;;4960036;28;20084;-95
2022/04/21 23:54:10;;;;;;;1.05;0.45;;;;;;;;;;4959766;28;20043;-92
2022/04/21 23:56:36;;;;;;;4.15;0.80;;;;;;;;;;4959709;28;20023;-91
2022/04/21 23:59:02;;;;;;;0.85;0.32;;;;;;;;;;4959726;28;20027;-93
